createdAt,value
2023-04-02T00:00:14.612Z,100.00
2023-04-02T00:02:50.370Z,100.00
2023-04-02T00:05:50.482Z,100.00
2023-04-02T00:08:30.985Z,100.00
2023-04-02T00:11:02.464Z,100.00
2023-04-02T00:13:33.888Z,100.00
2023-04-02T00:16:03.286Z,100.00
2023-04-02T00:18:31.738Z,100.00
2023-04-02T00:21:08.443Z,100.00
2023-04-02T00:23:37.623Z,100.00
2023-04-02T00:26:22.928Z,100.00
2023-04-02T00:28:50.715Z,100.00
2023-04-02T00:31:20.758Z,100.00
2023-04-02T00:33:49.778Z,100.00
2023-04-02T00:36:19.941Z,100.00
2023-04-02T00:38:48.893Z,100.00
2023-04-02T00:41:23.449Z,100.00
2023-04-02T00:43:52.232Z,100.00
2023-04-02T00:46:25.147Z,100.00
2023-04-02T00:48:58.905Z,100.00
2023-04-02T00:51:31.012Z,100.00
2023-04-02T00:54:03.121Z,100.00
2023-04-02T00:56:37.804Z,100.00
2023-04-02T00:59:06.342Z,100.00
2023-04-02T01:01:42.533Z,100.00
2023-04-02T01:04:29.012Z,100.00
2023-04-02T01:06:56.717Z,100.00
2023-04-02T01:09:36.444Z,100.00
2023-04-02T01:12:28.999Z,100.00
2023-04-02T01:15:09.678Z,100.00
2023-04-02T01:17:49.652Z,100.00
2023-04-02T01:20:37.234Z,100.00
2023-04-02T01:23:10.415Z,100.00
2023-04-02T01:25:44.592Z,100.00
2023-04-02T01:28:20.396Z,100.00
2023-04-02T01:30:53.682Z,100.00
2023-04-02T01:33:23.793Z,100.00
2023-04-02T01:36:01.693Z,100.00
2023-04-02T01:38:38.722Z,100.00
2023-04-02T01:41:13.176Z,100.00
2023-04-02T01:43:47.430Z,100.00
2023-04-02T01:46:31.864Z,100.00
2023-04-02T01:49:02.293Z,100.00
2023-04-02T01:51:31.926Z,100.00
2023-04-02T01:54:01.749Z,100.00
2023-04-02T01:56:30.924Z,100.00
2023-04-02T01:58:59.433Z,100.00
2023-04-02T02:01:32.844Z,100.00
2023-04-02T02:04:00.669Z,100.00
2023-04-02T02:06:28.400Z,100.00
2023-04-02T02:08:59.288Z,100.00
2023-04-02T02:11:29.510Z,100.00
2023-04-02T02:13:58.692Z,100.00
2023-04-02T02:16:29.904Z,100.00
2023-04-02T02:19:00.888Z,100.00
2023-04-02T02:21:39.750Z,100.00
2023-04-02T02:24:16.213Z,100.00
2023-04-02T02:26:47.074Z,100.00
2023-04-02T02:29:19.552Z,100.00
2023-04-02T02:31:53.394Z,100.00
2023-04-02T02:34:25.872Z,100.00
2023-04-02T02:36:57.383Z,100.00
2023-04-02T02:39:31.258Z,100.00
2023-04-02T02:42:03.758Z,100.00
2023-04-02T02:44:36.213Z,100.00
2023-04-02T02:47:11.188Z,100.00
2023-04-02T02:49:41.746Z,100.00
2023-04-02T02:52:16.697Z,100.00
2023-04-02T02:54:47.200Z,100.00
2023-04-02T02:57:20.001Z,100.00
2023-04-02T02:59:48.166Z,100.00
2023-04-02T03:02:17.294Z,100.00
2023-04-02T03:04:48.675Z,100.00
2023-04-02T03:07:19.234Z,100.00
2023-04-02T03:09:53.440Z,100.00
2023-04-02T03:12:43.052Z,100.00
2023-04-02T03:15:19.520Z,100.00
2023-04-02T03:17:51.383Z,100.00
2023-04-02T03:20:25.367Z,100.00
2023-04-02T03:22:58.679Z,100.00
2023-04-02T03:25:31.854Z,100.00
2023-04-02T03:28:03.321Z,100.00
2023-04-02T03:30:38.014Z,100.00
2023-04-02T03:33:14.157Z,100.00
2023-04-02T03:35:45.476Z,100.00
2023-04-02T03:38:19.195Z,100.00
2023-04-02T03:40:58.995Z,100.00
2023-04-02T03:43:27.949Z,100.00
2023-04-02T03:46:01.417Z,100.00
2023-04-02T03:48:35.933Z,100.00
2023-04-02T03:51:07.936Z,100.00
2023-04-02T03:53:35.792Z,100.00
2023-04-02T03:56:03.845Z,100.00
2023-04-02T03:58:39.561Z,100.00
2023-04-02T04:01:17.390Z,100.00
2023-04-02T04:03:50.740Z,100.00
2023-04-02T04:06:24.934Z,100.00
2023-04-02T04:08:55.529Z,100.00
2023-04-02T04:11:28.107Z,100.00
2023-04-02T04:14:00.566Z,100.00
2023-04-02T04:16:34.284Z,100.00
2023-04-02T04:19:08.070Z,100.00
2023-04-02T04:21:38.091Z,100.00
2023-04-02T04:24:08.153Z,100.00
2023-04-02T04:26:42.146Z,100.00
2023-04-02T04:29:20.527Z,100.00
2023-04-02T04:31:50.321Z,100.00
2023-04-02T04:34:24.853Z,100.00
2023-04-02T04:36:55.982Z,100.00
2023-04-02T04:39:29.798Z,100.00
2023-04-02T04:42:00.504Z,100.00
2023-04-02T04:44:37.780Z,100.00
2023-04-02T04:47:12.337Z,100.00
2023-04-02T04:49:44.209Z,100.00
2023-04-02T04:52:18.640Z,100.00
2023-04-02T04:54:46.955Z,100.00
2023-04-02T04:57:28.497Z,100.00
2023-04-02T05:00:06.300Z,100.00
2023-04-02T05:02:38.989Z,100.00
2023-04-02T05:05:18.975Z,100.00
2023-04-02T05:07:51.864Z,100.00
2023-04-02T05:10:26.470Z,100.00
2023-04-02T05:12:58.012Z,100.00
2023-04-02T05:15:31.152Z,100.00
2023-04-02T05:18:07.240Z,100.00
2023-04-02T05:20:43.468Z,100.00
2023-04-02T05:23:18.646Z,100.00
2023-04-02T05:25:59.132Z,100.00
2023-04-02T05:28:32.947Z,100.00
2023-04-02T05:31:04.317Z,100.00
2023-04-02T05:33:34.674Z,100.00
2023-04-02T05:36:06.238Z,100.00
2023-04-02T05:38:36.315Z,100.00
2023-04-02T05:41:07.756Z,100.00
2023-04-02T05:43:37.958Z,100.00
2023-04-02T05:46:16.228Z,100.00
2023-04-02T05:48:46.113Z,100.00
2023-04-02T05:51:20.006Z,100.00
2023-04-02T05:53:50.795Z,100.00
2023-04-02T05:56:22.686Z,100.00
2023-04-02T05:58:53.231Z,100.00
2023-04-02T06:01:29.303Z,100.00
2023-04-02T06:04:04.566Z,100.00
2023-04-02T06:06:55.468Z,100.00
2023-04-02T06:09:29.800Z,100.00
2023-04-02T06:12:05.452Z,100.00
2023-04-02T06:14:32.973Z,100.00
2023-04-02T06:17:00.972Z,100.00
2023-04-02T06:19:33.817Z,100.00
2023-04-02T06:22:12.720Z,100.00
2023-04-02T06:24:42.051Z,100.00
2023-04-02T06:27:13.766Z,100.00
2023-04-02T06:29:45.342Z,100.00
2023-04-02T06:32:13.842Z,100.00
2023-04-02T06:34:42.916Z,100.00
2023-04-02T06:37:20.901Z,100.00
2023-04-02T06:39:48.897Z,100.00
2023-04-02T06:42:20.413Z,100.00
2023-04-02T06:44:48.119Z,100.00
2023-04-02T06:47:24.837Z,100.00
2023-04-02T06:49:58.434Z,100.00
2023-04-02T06:52:31.614Z,100.00
2023-04-02T06:55:00.351Z,100.00
2023-04-02T06:57:27.923Z,100.00
2023-04-02T06:59:55.666Z,100.00
2023-04-02T07:02:34.357Z,100.00
2023-04-02T07:05:04.661Z,100.00
2023-04-02T07:07:33.537Z,100.00
2023-04-02T07:10:01.038Z,100.00
2023-04-02T07:12:28.593Z,100.00
2023-04-02T07:14:56.165Z,100.00
2023-04-02T07:17:23.698Z,100.00
2023-04-02T07:19:51.214Z,100.00
2023-04-02T07:22:19.440Z,100.00
2023-04-02T07:24:48.502Z,100.00
2023-04-02T07:27:16.243Z,100.00
2023-04-02T07:29:43.754Z,100.00
2023-04-02T07:32:12.160Z,100.00
2023-04-02T07:34:40.557Z,100.00
2023-04-02T07:37:08.613Z,100.00
2023-04-02T07:39:38.333Z,100.00
2023-04-02T07:42:08.632Z,100.00
2023-04-02T07:44:36.260Z,100.00
2023-04-02T07:47:03.851Z,100.00
2023-04-02T07:49:31.488Z,100.00
2023-04-02T07:51:58.945Z,100.00
2023-04-02T07:54:27.139Z,100.00
2023-04-02T07:56:54.696Z,100.00
2023-04-02T07:59:23.629Z,100.00
2023-04-02T08:01:52.805Z,100.00
2023-04-02T08:04:21.769Z,100.00
2023-04-02T08:06:50.541Z,100.00
2023-04-02T08:09:18.418Z,100.00
2023-04-02T08:11:46.490Z,100.00
2023-04-02T08:14:14.190Z,100.00
2023-04-02T08:16:48.463Z,100.00
2023-04-02T08:19:16.407Z,100.00
2023-04-02T08:21:43.923Z,100.00
2023-04-02T08:24:11.689Z,100.00
2023-04-02T08:26:39.164Z,100.00
2023-04-02T08:29:06.629Z,100.00
2023-04-02T08:31:34.065Z,100.00
2023-04-02T08:34:03.276Z,100.00
2023-04-02T08:36:34.862Z,100.00
2023-04-02T08:39:02.538Z,100.00
2023-04-02T08:41:32.138Z,100.00
2023-04-02T08:44:19.334Z,100.00
2023-04-02T08:46:50.262Z,100.00
2023-04-02T08:49:28.781Z,100.00
2023-04-02T08:51:56.464Z,100.00
2023-04-02T08:54:28.090Z,100.00
2023-04-02T08:57:02.073Z,100.00
2023-04-02T08:59:33.855Z,100.00
2023-04-02T09:02:25.699Z,100.00
2023-04-02T09:04:55.021Z,100.00
2023-04-02T09:07:22.633Z,100.00
2023-04-02T09:09:51.596Z,100.00
2023-04-02T09:12:21.471Z,100.00
2023-04-02T09:14:58.999Z,100.00
2023-04-02T09:17:27.863Z,100.00
2023-04-02T09:19:59.758Z,100.00
2023-04-02T09:22:29.069Z,100.00
2023-04-02T09:24:58.191Z,100.00
2023-04-02T09:27:29.112Z,100.00
2023-04-02T09:30:03.535Z,100.00
2023-04-02T09:32:50.251Z,100.00
2023-04-02T09:35:25.980Z,100.00
2023-04-02T09:38:30.583Z,100.00
2023-04-02T09:41:01.271Z,100.00
2023-04-02T09:43:30.629Z,100.00
2023-04-02T09:46:01.344Z,100.00
2023-04-02T09:48:31.589Z,100.00
2023-04-02T09:51:08.334Z,100.00
2023-04-02T09:53:37.249Z,100.00
2023-04-02T09:56:17.108Z,100.00
2023-04-02T09:58:45.999Z,100.00
2023-04-02T10:01:30.105Z,100.00
2023-04-02T10:03:59.234Z,100.00
2023-04-02T10:06:29.266Z,100.00
2023-04-02T10:08:56.904Z,100.00
2023-04-02T10:11:36.409Z,100.00
2023-04-02T10:14:16.815Z,100.00
2023-04-02T10:16:48.570Z,100.00
2023-04-02T10:19:23.666Z,100.00
2023-04-02T10:21:54.824Z,100.00
2023-04-02T10:24:22.263Z,100.00
2023-04-02T10:27:01.914Z,100.00
2023-04-02T10:29:42.873Z,100.00
2023-04-02T10:32:15.747Z,100.00
2023-04-02T10:34:50.645Z,100.00
2023-04-02T10:37:39.526Z,100.00
2023-04-02T10:40:15.663Z,100.00
2023-04-02T10:42:49.199Z,100.00
2023-04-02T10:45:24.674Z,100.00
2023-04-02T10:48:00.515Z,100.00
2023-04-02T10:50:33.456Z,100.00
2023-04-02T10:53:12.019Z,100.00
2023-04-02T10:55:44.643Z,100.00
2023-04-02T10:58:24.212Z,100.00
2023-04-02T11:00:54.830Z,100.00
2023-04-02T11:03:32.483Z,100.00
2023-04-02T11:06:05.186Z,100.00
2023-04-02T11:08:42.296Z,100.00
2023-04-02T11:11:15.049Z,100.00
2023-04-02T11:13:53.394Z,100.00
2023-04-02T11:16:21.444Z,100.00
2023-04-02T11:19:11.174Z,100.00
2023-04-02T11:21:54.957Z,100.00
2023-04-02T11:24:37.809Z,100.00
2023-04-02T11:27:08.291Z,100.00
2023-04-02T11:29:38.118Z,100.00
2023-04-02T11:32:27.474Z,100.00
2023-04-02T11:35:25.884Z,100.00
2023-04-02T11:37:54.670Z,100.00
2023-04-02T11:40:48.111Z,100.00
2023-04-02T11:43:51.314Z,100.00
2023-04-02T11:46:46.594Z,100.00
2023-04-02T11:49:41.826Z,100.00
2023-04-02T11:52:22.149Z,100.00
2023-04-02T11:54:58.226Z,100.00
2023-04-02T11:57:48.547Z,100.00
2023-04-02T12:00:33.858Z,100.00
2023-04-02T12:03:21.010Z,100.00
2023-04-02T12:05:58.509Z,100.00
2023-04-02T12:08:50.844Z,100.00
2023-04-02T12:11:33.657Z,100.00
2023-04-02T12:14:03.659Z,100.00
2023-04-02T12:16:35.325Z,100.00
2023-04-02T12:19:03.412Z,100.00
2023-04-02T12:21:31.087Z,100.00
2023-04-02T12:24:00.278Z,100.00
2023-04-02T12:26:37.377Z,100.00
2023-04-02T12:29:24.720Z,100.00
2023-04-02T12:31:53.294Z,100.00
2023-04-02T12:34:22.789Z,100.00
2023-04-02T12:36:55.636Z,100.00
2023-04-02T12:39:25.843Z,100.00
2023-04-02T12:41:55.016Z,100.00
2023-04-02T12:44:25.693Z,100.00
2023-04-02T12:46:54.096Z,100.00
2023-04-02T12:49:27.964Z,100.00
2023-04-02T12:51:56.557Z,100.00
2023-04-02T12:54:24.638Z,100.00
2023-04-02T12:56:52.628Z,100.00
2023-04-02T12:59:31.812Z,100.00
2023-04-02T13:02:01.077Z,100.00
2023-04-02T13:04:29.018Z,100.00
2023-04-02T13:06:57.373Z,100.00
2023-04-02T13:09:32.067Z,100.00
2023-04-02T13:12:00.228Z,100.00
2023-04-02T13:14:29.332Z,100.00
2023-04-02T13:16:57.144Z,100.00
2023-04-02T13:19:31.091Z,100.00
2023-04-02T13:22:00.268Z,100.00
2023-04-02T13:24:29.439Z,100.00
2023-04-02T13:26:59.109Z,100.00
2023-04-02T13:29:30.304Z,100.00
2023-04-02T13:32:00.138Z,100.00
2023-04-02T13:34:27.751Z,100.00
2023-04-02T13:36:55.466Z,100.00
2023-04-02T13:39:22.960Z,100.00
2023-04-02T13:41:53.132Z,100.00
2023-04-02T13:44:23.849Z,100.00
2023-04-02T13:46:54.309Z,100.00
2023-04-02T13:49:22.925Z,100.00
2023-04-02T13:51:52.123Z,100.00
2023-04-02T13:54:24.674Z,100.00
2023-04-02T13:56:52.589Z,100.00
2023-04-02T13:59:20.268Z,100.00
2023-04-02T14:01:48.465Z,100.00
2023-04-02T14:04:22.894Z,100.00
2023-04-02T14:07:09.652Z,100.00
2023-04-02T14:09:47.701Z,100.00
2023-04-02T14:12:24.690Z,100.00
2023-04-02T14:15:05.247Z,100.00
2023-04-02T14:17:47.339Z,100.00
2023-04-02T14:20:31.891Z,100.00
2023-04-02T14:23:22.971Z,100.00
2023-04-02T14:26:00.806Z,100.00
2023-04-02T14:28:39.148Z,100.00
2023-04-02T14:31:15.884Z,100.00
2023-04-02T14:33:52.393Z,100.00
2023-04-02T14:36:29.214Z,100.00
2023-04-02T14:39:04.146Z,100.00
2023-04-02T14:41:40.626Z,100.00
2023-04-02T14:44:09.559Z,100.00
2023-04-02T14:46:38.784Z,100.00
2023-04-02T14:49:19.781Z,100.00
2023-04-02T14:51:51.918Z,100.00
2023-04-02T14:54:28.399Z,100.00
2023-04-02T14:56:59.567Z,100.00
2023-04-02T14:59:31.562Z,100.00
2023-04-02T15:02:04.619Z,100.00
2023-04-02T15:04:36.849Z,100.00
2023-04-02T15:07:08.821Z,100.00
2023-04-02T15:09:41.433Z,100.00
2023-04-02T15:12:14.523Z,100.00
2023-04-02T15:14:45.562Z,100.00
2023-04-02T15:17:13.621Z,100.00
2023-04-02T15:19:41.142Z,100.00
2023-04-02T15:22:32.673Z,100.00
2023-04-02T15:25:12.310Z,100.00
2023-04-02T15:27:57.054Z,100.00
2023-04-02T15:30:28.612Z,100.00
2023-04-02T15:33:09.239Z,100.00
2023-04-02T15:35:44.486Z,100.00
2023-04-02T15:38:22.554Z,100.00
2023-04-02T15:40:55.741Z,100.00
2023-04-02T15:43:28.410Z,100.00
2023-04-02T15:46:18.485Z,100.00
2023-04-02T15:49:11.045Z,100.00
2023-04-02T15:51:51.265Z,100.00
2023-04-02T15:54:34.629Z,100.00
2023-04-02T15:57:13.099Z,100.00
2023-04-02T15:59:54.452Z,100.00
2023-04-02T16:02:40.465Z,100.00
2023-04-02T16:05:19.167Z,100.00
2023-04-02T16:08:09.047Z,100.00
2023-04-02T16:10:42.981Z,100.00
2023-04-02T16:13:18.730Z,100.00
2023-04-02T16:15:52.064Z,100.00
2023-04-02T16:18:31.214Z,100.00
2023-04-02T16:21:02.300Z,100.00
2023-04-02T16:23:34.947Z,100.00
2023-04-02T16:26:13.009Z,100.00
2023-04-02T16:28:47.373Z,100.00
2023-04-02T16:31:20.752Z,100.00
2023-04-02T16:33:59.519Z,100.00
2023-04-02T16:36:36.466Z,100.00
2023-04-02T16:39:13.880Z,100.00
2023-04-02T16:41:54.090Z,100.00
2023-04-02T16:44:32.485Z,100.00
2023-04-02T16:47:13.232Z,100.00
2023-04-02T16:49:50.758Z,100.00
2023-04-02T16:52:35.586Z,100.00
2023-04-02T16:55:24.225Z,100.00
2023-04-02T16:58:00.322Z,100.00
2023-04-02T17:00:34.923Z,100.00
2023-04-02T17:03:14.728Z,100.00
2023-04-02T17:05:53.945Z,100.00
2023-04-02T17:08:24.455Z,100.00
2023-04-02T17:10:56.575Z,100.00
2023-04-02T17:13:29.717Z,100.00
2023-04-02T17:16:05.828Z,100.00
2023-04-02T17:18:34.517Z,100.00
2023-04-02T17:21:06.309Z,100.00
2023-04-02T17:23:55.330Z,100.00
2023-04-02T17:26:26.978Z,100.00
2023-04-02T17:28:58.302Z,100.00
2023-04-02T17:31:28.188Z,100.00
2023-04-02T17:33:55.701Z,100.00
2023-04-02T17:36:42.168Z,100.00
2023-04-02T17:39:18.450Z,100.00
2023-04-02T17:41:53.144Z,100.00
2023-04-02T17:44:45.911Z,100.00
2023-04-02T17:47:20.335Z,100.00
2023-04-02T17:49:58.483Z,100.00
2023-04-02T17:52:30.899Z,100.00
2023-04-02T17:55:07.528Z,100.00
2023-04-02T17:57:47.262Z,100.00
2023-04-02T18:00:26.536Z,100.00
2023-04-02T18:03:08.509Z,100.00
2023-04-02T18:05:43.392Z,100.00
2023-04-02T18:08:24.083Z,100.00
2023-04-02T18:11:02.414Z,100.00
2023-04-02T18:13:35.479Z,100.00
2023-04-02T18:16:17.941Z,100.00
2023-04-02T18:18:57.783Z,100.00
2023-04-02T18:21:32.047Z,100.00
2023-04-02T18:24:16.281Z,100.00
2023-04-02T18:26:53.661Z,100.00
2023-04-02T18:29:31.806Z,100.00
2023-04-02T18:32:31.573Z,100.00
2023-04-02T18:35:09.903Z,100.00
2023-04-02T18:37:44.443Z,100.00
2023-04-02T18:40:39.399Z,100.00
2023-04-02T18:43:18.866Z,100.00
2023-04-02T18:45:56.194Z,100.00
2023-04-02T18:48:40.738Z,100.00
2023-04-02T18:51:14.546Z,100.00
2023-04-02T18:53:43.201Z,100.00
2023-04-02T18:56:14.394Z,100.00
2023-04-02T18:58:46.988Z,100.00
2023-04-02T19:01:19.129Z,100.00
2023-04-02T19:03:52.340Z,100.00
2023-04-02T19:06:24.273Z,100.00
2023-04-02T19:08:58.242Z,100.00
2023-04-02T19:11:29.650Z,100.00
2023-04-02T19:14:00.575Z,100.00
2023-04-02T19:16:55.736Z,100.00
2023-04-02T19:19:27.792Z,100.00
2023-04-02T19:22:16.646Z,100.00
2023-04-02T19:25:00.575Z,100.00
2023-04-02T19:27:37.981Z,100.00
2023-04-02T19:30:26.300Z,100.00
2023-04-02T19:33:03.339Z,100.00
2023-04-02T19:35:41.116Z,100.00
2023-04-02T19:38:20.089Z,100.00
2023-04-02T19:40:55.745Z,100.00
2023-04-02T19:43:23.249Z,100.00
2023-04-02T19:45:53.178Z,100.00
2023-04-02T19:48:23.397Z,100.00
2023-04-02T19:50:52.219Z,100.00
2023-04-02T19:53:20.140Z,100.00
2023-04-02T19:55:47.643Z,100.00
2023-04-02T19:58:24.185Z,100.00
2023-04-02T20:00:51.714Z,100.00
2023-04-02T20:03:19.241Z,100.00
2023-04-02T20:05:46.909Z,100.00
2023-04-02T20:08:15.797Z,100.00
2023-04-02T20:10:43.709Z,100.00
2023-04-02T20:13:11.286Z,100.00
2023-04-02T20:15:40.309Z,100.00
2023-04-02T20:18:09.247Z,100.00
2023-04-02T20:20:37.026Z,100.00
2023-04-02T20:23:04.681Z,100.00
2023-04-02T20:25:33.523Z,100.00
2023-04-02T20:28:03.658Z,100.00
2023-04-02T20:30:31.587Z,100.00
2023-04-02T20:32:59.358Z,100.00
2023-04-02T20:35:27.485Z,100.00
2023-04-02T20:37:54.991Z,100.00
2023-04-02T20:40:22.546Z,100.00
2023-04-02T20:42:52.630Z,100.00
2023-04-02T20:45:20.142Z,100.00
2023-04-02T20:47:47.691Z,100.00
2023-04-02T20:50:15.547Z,100.00
2023-04-02T20:52:43.013Z,100.00
2023-04-02T20:55:11.103Z,100.00
2023-04-02T20:57:38.675Z,100.00
2023-04-02T21:00:10.170Z,100.00
2023-04-02T21:02:37.789Z,100.00
2023-04-02T21:05:06.133Z,100.00
2023-04-02T21:07:34.336Z,100.00
2023-04-02T21:10:01.841Z,100.00
2023-04-02T21:12:29.379Z,100.00
2023-04-02T21:15:00.354Z,100.00
2023-04-02T21:17:31.313Z,100.00
2023-04-02T21:19:58.813Z,100.00
2023-04-02T21:22:26.253Z,100.00
2023-04-02T21:24:53.731Z,100.00
2023-04-02T21:27:25.456Z,100.00
2023-04-02T21:29:52.921Z,97.15
2023-04-02T21:32:21.958Z,95.39
2023-04-02T21:34:51.097Z,96.97
2023-04-02T21:37:18.580Z,98.82
2023-04-02T21:39:46.131Z,98.67
2023-04-02T21:42:14.315Z,98.63
2023-04-02T21:44:41.790Z,96.56
2023-04-02T21:47:09.266Z,96.69
2023-04-02T21:49:36.761Z,95.71
2023-04-02T21:52:05.836Z,96.94
2023-04-02T21:54:33.361Z,97.93
2023-04-02T21:57:00.856Z,94.29
2023-04-02T21:59:28.441Z,93.18
2023-04-02T22:01:56.111Z,93.55
2023-04-02T22:04:25.792Z,93.79
2023-04-02T22:06:54.017Z,94.19
2023-04-02T22:09:24.771Z,94.47
2023-04-02T22:11:55.228Z,91.38
2023-04-02T22:14:24.235Z,89.68
2023-04-02T22:16:51.887Z,91.21
2023-04-02T22:19:19.567Z,91.35
2023-04-02T22:21:47.112Z,88.89
2023-04-02T22:24:18.555Z,90.63
2023-04-02T22:26:47.702Z,91.96
2023-04-02T22:29:15.704Z,91.71
2023-04-02T22:31:43.425Z,89.37
2023-04-02T22:34:11.055Z,87.47
2023-04-02T22:36:38.538Z,90.06
2023-04-02T22:39:10.310Z,92.58
2023-04-02T22:41:38.339Z,93.33
2023-04-02T22:44:07.192Z,91.23
2023-04-02T22:46:35.010Z,92.59
2023-04-02T22:49:03.175Z,93.35
2023-04-02T22:51:31.014Z,94.66
2023-04-02T22:53:58.632Z,93.89
2023-04-02T22:56:28.699Z,96.09
2023-04-02T22:58:56.298Z,94.99
2023-04-02T23:01:28.247Z,96.33
2023-04-02T23:03:56.767Z,95.04
2023-04-02T23:06:25.523Z,93.78
2023-04-02T23:08:53.642Z,95.45
2023-04-02T23:11:22.837Z,95.18
2023-04-02T23:13:52.528Z,93.31
2023-04-02T23:16:21.227Z,92.32
2023-04-02T23:18:50.136Z,95.85
2023-04-02T23:21:18.767Z,94.32
2023-04-02T23:23:46.557Z,93.81
2023-04-02T23:26:15.518Z,90.76
2023-04-02T23:28:43.508Z,90.31
2023-04-02T23:31:13.839Z,92.29
2023-04-02T23:33:41.428Z,90.03
2023-04-02T23:36:11.954Z,90.92
2023-04-02T23:38:39.433Z,90.30
2023-04-02T23:41:06.944Z,89.87
2023-04-02T23:43:34.732Z,85.64
2023-04-02T23:46:02.233Z,84.04
2023-04-02T23:48:29.704Z,81.53
2023-04-02T23:50:57.253Z,80.28
2023-04-02T23:53:26.273Z,82.47
2023-04-02T23:55:53.841Z,82.79
2023-04-02T23:58:21.407Z,82.43
